createdAt,value
2022-10-14T07:20:18.768Z,56.25
2022-10-14T07:21:18.669Z,56.25
2022-10-14T07:22:18.687Z,67.50
2022-10-14T07:23:18.515Z,73.13
2022-10-14T07:24:18.439Z,73.13
2022-10-14T07:25:18.358Z,73.13
2022-10-14T07:26:18.281Z,78.75
2022-10-14T07:27:18.222Z,73.13
2022-10-14T07:28:18.163Z,84.38
2022-10-14T07:29:18.051Z,106.88
2022-10-14T07:30:17.973Z,135.00
2022-10-14T07:31:17.900Z,146.25
2022-10-14T07:32:17.819Z,157.50
2022-10-14T07:33:17.743Z,157.50
2022-10-14T07:34:17.767Z,163.13
2022-10-14T07:35:17.789Z,168.75
2022-10-14T07:36:20.054Z,168.75
2022-10-14T07:37:17.436Z,168.75
2022-10-14T07:38:17.357Z,168.75
2022-10-14T07:39:17.280Z,168.75
2022-10-14T07:40:17.210Z,168.75
2022-10-14T07:41:17.165Z,168.75
2022-10-14T07:42:17.095Z,168.75
2022-10-14T07:43:16.974Z,180.00
2022-10-14T07:44:16.897Z,196.88
2022-10-14T07:45:16.818Z,202.50
2022-10-14T07:46:16.759Z,213.75
2022-10-14T07:47:16.665Z,208.13
2022-10-14T07:48:27.291Z,202.50
2022-10-14T07:49:16.514Z,202.50
2022-10-14T07:50:16.437Z,202.50
2022-10-14T07:51:16.359Z,208.13
2022-10-14T07:52:16.299Z,202.50
2022-10-14T11:49:34.526Z,236.25
2022-10-14T11:50:34.435Z,253.13
2022-10-14T11:51:35.810Z,264.38
2022-10-14T11:52:34.283Z,258.75
2022-10-14T11:53:34.246Z,253.13
2022-10-14T11:54:34.131Z,230.63
2022-10-14T11:55:34.057Z,213.75
2022-10-14T11:56:33.981Z,196.88
2022-10-14T11:57:33.904Z,185.63
2022-10-14T11:58:33.831Z,180.00
2022-10-14T11:59:33.755Z,174.38
2022-10-14T12:00:33.687Z,174.38
2022-10-14T12:01:35.837Z,185.63
2022-10-14T12:02:33.573Z,219.38
2022-10-14T12:03:33.453Z,219.38
2022-10-14T12:04:33.379Z,241.88
2022-10-14T12:05:33.322Z,253.13
2022-10-14T12:06:33.328Z,281.25
2022-10-14T12:07:33.155Z,303.75
2022-10-14T12:08:34.689Z,309.38
2022-10-14T12:09:33.063Z,303.75
2022-10-14T12:10:32.929Z,298.13
2022-10-14T12:11:32.928Z,298.13
2022-10-14T12:12:32.816Z,298.13
2022-10-14T12:13:32.700Z,298.13
2022-10-14T12:14:32.624Z,281.25
2022-10-14T12:15:32.556Z,264.38
2022-10-14T12:16:32.473Z,253.13
2022-10-14T15:37:59.690Z,50.63
2022-10-14T15:38:59.591Z,56.25
2022-10-14T15:39:59.513Z,50.63
2022-10-14T15:40:59.436Z,39.38
2022-10-14T15:41:59.360Z,39.38
2022-10-14T15:42:59.285Z,45.00
2022-10-14T15:43:59.206Z,45.00
2022-10-14T15:44:59.132Z,45.00
2022-10-14T15:45:59.056Z,45.00
2022-10-14T15:46:58.980Z,39.38
2022-10-14T15:47:58.904Z,39.38
2022-10-14T15:48:58.827Z,33.75
2022-10-14T15:49:58.750Z,33.75
2022-10-14T15:50:58.676Z,22.50
2022-10-14T15:51:58.593Z,22.50
2022-10-14T15:52:58.517Z,22.50
2022-10-14T15:53:58.460Z,22.50
2022-10-14T15:54:58.369Z,22.50
2022-10-14T15:55:58.289Z,16.88
2022-10-14T15:56:58.217Z,16.88
2022-10-14T15:57:58.137Z,16.88
2022-10-14T15:58:58.060Z,11.25
2022-10-14T15:59:57.982Z,11.25
2022-10-14T16:00:57.911Z,11.25
2022-10-14T16:01:57.914Z,16.88
2022-10-14T16:02:57.904Z,22.50
2022-10-14T16:03:57.675Z,16.88
2022-10-14T16:05:18.892Z,16.88
2022-10-14T16:05:57.567Z,16.88
2022-10-14T16:06:57.448Z,11.25
2022-10-14T16:07:57.406Z,16.88
2022-10-14T16:08:57.296Z,11.25
2022-10-14T16:09:57.235Z,11.25
2022-10-14T16:10:57.140Z,5.63
2022-10-14T16:11:57.119Z,5.63
2022-10-14T16:12:56.987Z,5.63
2022-10-14T16:13:56.910Z,5.63
2022-10-14T16:14:56.895Z,5.63
2022-10-14T16:15:56.756Z,5.63
2022-10-14T18:35:36.938Z,0.00
2022-10-14T18:36:36.682Z,0.00
